Česky Dansk Deutsch English Español Suomi Français Magyar Italiano Nederlands norsk Polski Português svenska Türkçe

 

Het Weer

Sayun (Yemen)

07:00, 26 maart 2015 (GMT)

 
WE
 
Home            
Sayun Riyan Sharurah Ataq Marib Al-Hazm Sana'A Najran Aden Sa'Ada / Sadah Taiz Salalah Mokha Thumrait Wadi Al Dawasser Airport Hodeidah Socotra Mokha Gizan Khamis Mushait Abha Assab Berbera

Om een weerknop op uw website of weblog te plaatsen, copieer onderstaande code en plak die in uw pagina. In het eerste vakje staat HTML-code, in het tweede vakje UBB-code.


Add to Google

Details

Wind speed:1 bf, 2 kn, 1.0 m/s, 2.3 miles/h, 3.7 km/h
Wind direction:Variable
Het Weer:moderate
moderate
Temperature:30°C, 86°F
Gefühlte Temperatur:28°C, 83°F
Dew-point:7°C, 45°F
Atmospheric pressure:1018 hPa, 763.6 mmHg, 30.06 inHg, 1.005 atm
Relative humidity:23.6 %
METAR:OYSY 260700Z AUTO VRB02KT 30/07 Q1018

Snelkoppelingen

Actuele weersinformatie van de hele wereld. Voeg locaties toe met het plus (+) symbool. Deze snelkoppelingen kunnen worden toegevoegd aan Google.

Lid van de Technetium groep

website free tracking
StatCounter NetStat W3C Validator

18-08-2019 05:06:10
astro.technetium.be money.technetium.be phote.technetium.be tafeltennistafel.technetium.be www.ligfiets.net